ADDS METAR Data INFO
IDs: Format: Raw Decoded Include TAF

Data at: 0921 UTC 13 Dec 2017

KCDI 130915Z AUTO 28004KT 10SM OVC050 M07/M13 A2990 RMK AO2 T10701130
KCDI 130855Z AUTO 28005KT 10SM SCT036 OVC050 M07/M13 A2990 RMK AO2 T10701128
KCDI 130835Z AUTO 00000KT 10SM OVC050 M07/M13 A2990 RMK AO2 T10701132
KCDI 130815Z AUTO 27003KT 10SM SCT036 OVC050 M07/M13 A2990 RMK AO2 T10681135
KCDI 130755Z AUTO 29004KT 10SM SCT039 SCT048 OVC050 M07/M14 A2990 RMK AO2 T10681136
KCDI 130735Z AUTO 29007KT 10SM OVC050 M07/M14 A2990 RMK AO2 T10681140
KCDI 130715Z AUTO 28004KT 10SM SCT044 OVC049 M07/M14 A2989 RMK AO2 T10671141
KCDI 130655Z AUTO 27003KT 10SM OVC049 M07/M14 A2989 RMK AO2 T10681144
KCDI 130635Z AUTO 27003KT 10SM OVC049 M07/M14 A2989 RMK AO2 T10681145
KCDI 130615Z AUTO 27004KT 10SM OVC047 M07/M14 A2989 RMK AO2 T10681141
KCDI 130555Z AUTO 28005KT 10SM OVC050 M07/M14 A2989 RMK AO2 T10701137 11061 21073
KCDI 130535Z AUTO 27006KT 10SM SCT042 OVC050 M07/M13 A2989 RMK AO2 T10701132
KCDI 130515Z AUTO 27004KT 10SM BKN050 OVC055 M07/M14 A2989 RMK AO2 T10701136
KCDI 130455Z AUTO 29005KT 10SM SCT028 SCT037 OVC050 M07/M13 A2990 RMK AO2 T10711133 400511073
KCDI 130435Z AUTO 31007G17KT 280V340 7SM SCT030 SCT036 OVC050 M07/M14 A2990 RMK AO2 T10691143
KCDI 130415Z AUTO 00000KT 10SM OVC050 M07/M15 A2990 RMK AO2 T10671150
KCDI 130355Z AUTO 30003KT 10SM SCT044 BKN050 M07/M15 A2990 RMK AO2 T10681151
KCDI 130335Z AUTO 31009G14KT 10SM SCT042 OVC050 M06/M14 A2990 RMK AO2 T10651143
KCDI 130315Z AUTO 29004G14KT 10SM SCT042 BKN050 OVC060 M06/M14 A2990 RMK AO2 T10651140
KCDI 130255Z AUTO 28003KT 10SM BKN044 BKN050 OVC060 M06/M14 A2990 RMK AO2 T10651138
KCDI 130235Z AUTO 00000KT 10SM SCT044 BKN050 OVC060 M06/M14 A2990 RMK AO2 T10651140
KCDI 130215Z AUTO 32003KT 10SM OVC060 M06/M14 A2990 RMK AO2 T10651140
KCDI 130156Z AUTO 33004KT 10SM SCT049 OVC060 M06/M14 A2990 RMK AO2 T10651138
KCDI 130135Z AUTO 32003KT 10SM OVC060 M06/M14 A2990 RMK AO2 T10641140
KCDI 130115Z AUTO 00000KT 10SM OVC060 M06/M13 A2991 RMK AO2 T10641135
KCDI 130055Z AUTO 31006KT 10SM OVC070 M06/M13 A2991 RMK AO2 T10631130
KCDI 130035Z AUTO 30006KT 10SM OVC070 M06/M13 A2991 RMK AO2 T10611128
KCDI 130015Z AUTO 34004KT 10SM OVC070 M06/M13 A2990 RMK AO2 T10611127
KCDI 122355Z AUTO 30003KT 10SM BKN070 M06/M13 A2989 RMK AO2 T10621127 11020 21062
KCDI 122335Z AUTO 31004KT 10SM BKN070 M06/M13 A2989 RMK AO2 T10611127
KCDI 122315Z AUTO 29009KT 250V310 10SM OVC070 M06/M12 A2988 RMK AO2 T10581125
KCDI 122255Z AUTO 31009G15KT 270V010 10SM OVC070 M06/M13 A2988 RMK AO2 T10561129
KCDI 122235Z AUTO 30004KT 10SM SCT031 SCT047 OVC070 M05/M13 A2988 RMK AO2 T10531133
KCDI 122215Z AUTO 27005KT 10SM SCT047 OVC060 M05/M13 A2987 RMK AO2 T10511132
KCDI 122155Z AUTO 32006KT 10SM SCT049 OVC060 M05/M13 A2986 RMK AO2 T10501135
KCDI 122135Z AUTO 30004G19KT 10SM SCT032 OVC060 M05/M14 A2986 RMK AO2 T10491138
KCDI 122115Z AUTO 28006G19KT 10SM SCT032 BKN043 OVC070 M05/M12 A2985 RMK AO2 T10501123
KCDI 122055Z AUTO 29008G18KT 7SM SCT032 BKN043 OVC050 M05/M12 A2985 RMK AO2 T10501118
KCDI 122035Z AUTO 31005KT 10SM SCT032 BKN042 OVC050 M04/M11 A2984 RMK AO2 T10451114
KCDI 122015Z AUTO 29008G18KT 250V320 10SM SCT029 SCT037 BKN046 M04/M11 A2984 RMK AO2 T10421115
KCDI 121955Z AUTO 29008G18KT 10SM SCT027 SCT039 BKN048 M04/M11 A2983 RMK AO2 T10411112
KCDI 121935Z AUTO 29009G17KT 10SM SCT040 BKN048 OVC055 M04/M12 A2983 RMK AO2 T10381125
KCDI 121915Z AUTO 29010G18KT 250V330 10SM BKN048 OVC055 M03/M13 A2982 RMK AO2 T10351128
KCDI 121855Z AUTO 28011G18KT 240V310 10SM OVC048 M03/M12 A2981 RMK AO2 T10331125
KCDI 121835Z AUTO 27011G17KT 10SM SCT034 OVC048 M02/M12 A2981 RMK AO2 T10201117
KCDI 121815Z AUTO 27006G14KT 10SM SCT036 SCT044 OVC050 M03/M09 A2981 RMK AO2 T10301095
KCDI 121755Z AUTO 27011G21KT 230V290 10SM SCT024 SCT031 OVC048 M04/M09 A2981 RMK AO2 T10371088 10002 21037
KCDI 121735Z AUTO 31007G20KT 4SM -SN SCT024 BKN033 OVC046 M03/M08 A2981 RMK AO2 T10341076
KCDI 121715Z AUTO 28008G19KT 250V330 10SM OVC046 M02/M10 A2980 RMK AO2 T10211097
KCDI 121655Z AUTO 29009G17KT 270V330 10SM OVC042 M01/M10 A2980 RMK AO2 T10071098
KCDI 121635Z AUTO 31008G19KT 10SM BKN038 BKN043 BKN080 M01/M09 A2980 RMK AO2 T10151095
KCDI 121615Z AUTO 28011G17KT 10SM SCT026 BKN036 OVC060 M02/M09 A2981 RMK AO2 T10191091
KCDI 121515Z AUTO 30007KT 270V330 10SM SCT031 SCT037 OVC050 M01/M06 A2980 RMK AO2 T10151061
KCDI 121455Z AUTO 29007G15KT 270V330 10SM SCT016 BKN040 OVC048 M01/M05 A2979 RMK AO2 T10151055
KCDI 121435Z AUTO 31006G16KT 3SM -SN SCT016 BKN024 OVC037 M01/M04 A2978 RMK AO2 T10081036
KCDI 121415Z AUTO 30008G15KT 10SM SCT015 SCT021 OVC035 00/M04 A2976 RMK AO2 T10011039
KCDI 121355Z AUTO 32005KT 10SM -SN BKN015 BKN019 OVC036 00/M02 A2975 RMK AO2 T00001018
KCDI 121335Z AUTO 28005KT 7SM -SN BKN015 OVC021 00/M01 A2974 RMK AO2 T00011013
KCDI 121315Z AUTO 26005KT 4SM -SN BKN013 OVC018 00/M01 A2974 RMK AO2 T00011010
KCDI 121255Z AUTO 27005KT 3SM -SN BKN010 OVC016 00/M01 A2973 RMK AO2 T00011007
KCDI 121235Z AUTO 25003KT 3SM -SN BKN008 OVC017 00/M01 A2973 RMK AO2 T00011006
KCDI 121215Z AUTO 26003KT 1 1/4SM -SN BKN008 OVC014 00/M01 A2972 RMK AO2 T00011006
KCDI 121155Z AUTO 27005KT 1SM -SN BKN008 OVC014 00/M01 A2972 RMK AO2 T00031006 10051 20003
KCDI 121135Z AUTO 29005KT 3SM -SN BKN016 OVC020 01/M01 A2971 RMK AO2 T00071009
KCDI 121115Z AUTO 26006KT 4SM -RA OVC018 01/M01 A2970 RMK AO2 T00101008
KCDI 121055Z AUTO 28008KT 4SM -RA OVC020 01/M01 A2969 RMK AO2 T00141006
KCDI 121035Z AUTO 28011G17KT 250V310 7SM -RA OVC022 03/M01 A2968 RMK AO2 T00251011
KCDI 121015Z AUTO 26004KT 10SM OVC024 03/M01 A2966 RMK AO2 T00301013
KCDI 120955Z AUTO 28008G14KT 240V310 10SM OVC026 03/M01 A2966 RMK AO2 T00331013
KCDI 120935Z AUTO 00000KT 10SM OVC028 04/M02 A2965 RMK AO2 T00361018
KCDI 120915Z AUTO 23004KT 10SM OVC030 04/M02 A2965 RMK AO2 T00371020
KCDI 120855Z AUTO 24007KT 10SM OVC032 04/M02 A2965 RMK AO2 T00391020
KCDI 120835Z AUTO 24005KT 10SM OVC034 04/M02 A2965 RMK AO2 T00411017
KCDI 120815Z AUTO 24004KT 10SM BKN032 OVC060 04/M02 A2964 RMK AO2 T00431017
KCDI 120755Z AUTO 24006G17KT 10SM SCT032 BKN060 OVC085 05/M02 A2964 RMK AO2 T00461020
KCDI 120735Z AUTO 23006G18KT 10SM SCT060 BKN075 OVC085 05/M02 A2963 RMK AO2 T00501022
KCDI 120715Z AUTO 24007G14KT 10SM SCT060 OVC075 05/M02 A2963 RMK AO2 T00501022
KCDI 120655Z AUTO 22009G17KT 10SM OVC060 05/M02 A2962 RMK AO2 T00501020
KCDI 120635Z AUTO 23011G16KT 10SM BKN070 OVC100 05/M02 A2962 RMK AO2 T00481021
KCDI 120615Z AUTO 22007KT 10SM SCT070 OVC090 04/M02 A2961 RMK AO2 T00371020
KCDI 120555Z AUTO 21007KT 10SM OVC090 01/M02 A2961 RMK AO2 T00071022 10007 21032
KCDI 120535Z AUTO 00000KT 10SM BKN090 M01/M03 A2962 RMK AO2 T10131030
KCDI 120515Z AUTO 00000KT 10SM SCT110 M02/M03 A2962 RMK AO2 T10161034
KCDI 120455Z AUTO 00000KT 10SM SCT120 M02/M03 A2963 RMK AO2 T10161035 400401032
KCDI 120435Z AUTO 00000KT 10SM SCT120 M02/M04 A2965 RMK AO2 T10221036
KCDI 120415Z AUTO 00000KT 10SM SCT080 M03/M04 A2966 RMK AO2 T10301039
KCDI 120356Z AUTO 00000KT 10SM CLR M03/M04 A2966 RMK AO2 T10261040
KCDI 120335Z AUTO 00000KT 10SM CLR M02/M03 A2967 RMK AO2 T10191035
KCDI 120315Z AUTO 00000KT 10SM SCT120 M02/M04 A2968 RMK AO2 T10181036
KCDI 120255Z AUTO 00000KT 10SM SCT120 M02/M03 A2969 RMK AO2 T10181035
KCDI 120235Z AUTO 00000KT 10SM CLR M02/M03 A2971 RMK AO2 T10161033
KCDI 120215Z AUTO 00000KT 10SM SCT110 M02/M03 A2972 RMK AO2 T10161035
KCDI 120155Z AUTO 00000KT 10SM OVC110 M02/M04 A2973 RMK AO2 T10221037
KCDI 120135Z AUTO 00000KT 10SM BKN110 M02/M04 A2975 RMK AO2 T10241040
KCDI 120115Z AUTO 00000KT 10SM CLR M03/M04 A2977 RMK AO2 T10261041
KCDI 120055Z AUTO 00000KT 10SM CLR M02/M04 A2979 RMK AO2 T10251042
KCDI 120035Z AUTO 00000KT 10SM CLR M03/M05 A2979 RMK AO2 T10301047
KCDI 120015Z AUTO 00000KT 10SM CLR M02/M04 A2980 RMK AO2 T10201040
KCDI 112355Z AUTO 00000KT 10SM CLR M01/M04 A2980 RMK AO2 T10141037 10040 21015
KCDI 112335Z AUTO 00000KT 10SM CLR M01/M04 A2980 RMK AO2 T10071036
KCDI 112315Z AUTO 00000KT 10SM CLR 00/M03 A2981 RMK AO2 T00001034
KCDI 112255Z AUTO 00000KT 10SM CLR 01/M03 A2981 RMK AO2 T00051032
KCDI 112235Z AUTO 00000KT 10SM CLR 01/M03 A2984 RMK AO2 T00061035
KCDI 112215Z AUTO 00000KT 10SM SCT120 02/M04 A2985 RMK AO2 T00211036
KCDI 112155Z AUTO 00000KT 10SM BKN110 03/M04 A2986 RMK AO2 T00311037